Ignacio, California
Current Conditions -  °F | °C
As of 9:35 AM on Friday 19 Dec 2014 (Local Time) from KDVO Reporting Station
Moderate Rain Moderate Rain  
Wind Chill: 55°   Ceiling: 200
Heat Index: 55°   Visibility: 1.2mi
Dew Point: 55°   Wind: 0mph
Humidity: 100%   Direction: NA
Pressure: 30.15"   Gusts: NA
Location:  38.0639°N, 122.532°W
Report Text: KDVO 191735Z AUTO 00000KT 1 1/4SM RA BKN002 BKN011 OVC018 13/13 A3015 RMK AO2 P0004
Loading
Personal Weather Stations






























Interactive Weather Map New forecast layout! Learn more

10-Day Weather Forecast

Advertisements
Track Severe Weather on mobile